createdAt,value
2022-08-16T00:00:30.312Z,1003.18
2022-08-16T00:01:33.865Z,1003.20
2022-08-16T00:02:30.350Z,1003.19
2022-08-16T00:03:30.201Z,1003.21
2022-08-16T00:04:30.148Z,1003.21
2022-08-16T00:05:35.034Z,1003.22
2022-08-16T00:06:30.056Z,1003.24
2022-08-16T00:07:30.019Z,1003.19
2022-08-16T00:08:36.494Z,1003.22
2022-08-16T00:09:29.937Z,1003.26
2022-08-16T00:10:29.894Z,1003.25
2022-08-16T00:11:29.854Z,1003.25
2022-08-16T00:12:29.813Z,1003.24
2022-08-16T00:13:29.812Z,1003.24
2022-08-16T00:14:30.400Z,1003.23
2022-08-16T00:15:52.102Z,1003.22
2022-08-16T00:17:05.778Z,1003.25
2022-08-16T00:17:29.599Z,1003.20
2022-08-16T00:18:31.565Z,1003.22
2022-08-16T00:19:41.732Z,1003.27
2022-08-16T00:20:29.474Z,1003.25
2022-08-16T00:21:29.432Z,1003.25
2022-08-16T00:22:29.390Z,1003.26
2022-08-16T00:23:34.636Z,1003.27
2022-08-16T00:24:31.243Z,1003.21
2022-08-16T00:26:33.570Z,1003.25
2022-08-16T00:26:34.727Z,1003.27
2022-08-16T00:27:30.731Z,1003.25
2022-08-16T00:28:29.851Z,1003.30
2022-08-16T00:29:29.959Z,1003.24
2022-08-16T00:30:29.304Z,1003.27
2022-08-16T00:31:59.486Z,1003.29
2022-08-16T00:32:32.735Z,1003.32
2022-08-16T00:33:28.949Z,1003.32
2022-08-16T00:34:43.999Z,1003.34
2022-08-16T00:35:28.887Z,1003.35
2022-08-16T00:36:28.806Z,1003.36
2022-08-16T00:37:57.095Z,1003.37
2022-08-16T00:38:40.669Z,1003.34
2022-08-16T00:39:28.712Z,1003.34
2022-08-16T00:40:34.363Z,1003.35
2022-08-16T00:41:28.597Z,1003.34
2022-08-16T00:42:30.624Z,1003.31
2022-08-16T00:43:42.914Z,1003.34
2022-08-16T00:44:32.585Z,1003.32
2022-08-16T00:45:28.435Z,1003.32
2022-08-16T00:46:33.818Z,1003.29
2022-08-16T00:47:29.936Z,1003.30
2022-08-16T00:48:31.031Z,1003.26
2022-08-16T00:49:28.268Z,1003.31
2022-08-16T00:50:36.241Z,1003.29
2022-08-16T00:51:29.474Z,1003.28
2022-08-16T00:52:29.578Z,1003.31
2022-08-16T00:53:30.640Z,1003.32
2022-08-16T00:54:28.081Z,1003.26
2022-08-16T00:55:28.018Z,1003.28
2022-08-16T00:56:58.573Z,1003.28
2022-08-16T00:57:33.091Z,1003.28
2022-08-16T00:58:35.001Z,1003.24
2022-08-16T00:59:27.848Z,1003.23
2022-08-16T01:00:27.850Z,1003.22
2022-08-16T01:01:27.791Z,1003.21
2022-08-16T01:02:31.428Z,1003.22
2022-08-16T01:03:31.629Z,1003.22
2022-08-16T01:04:29.852Z,1003.21
2022-08-16T01:05:27.599Z,1003.24
2022-08-16T01:06:39.897Z,1003.23
2022-08-16T01:07:27.520Z,1003.22
2022-08-16T01:08:35.745Z,1003.27
2022-08-16T01:09:27.434Z,1003.28
2022-08-16T01:10:32.330Z,1003.27
2022-08-16T01:11:27.348Z,1003.28
2022-08-16T01:12:27.314Z,1003.30
2022-08-16T01:13:27.265Z,1003.27
2022-08-16T01:14:30.102Z,1003.29
2022-08-16T01:15:27.180Z,1003.32
2022-08-16T01:16:28.367Z,1003.32
2022-08-16T01:17:27.100Z,1003.36
2022-08-16T01:18:40.280Z,1003.37
2022-08-16T01:19:27.012Z,1003.32
2022-08-16T01:20:30.417Z,1003.36
2022-08-16T01:21:33.649Z,1003.35
2022-08-16T01:22:49.566Z,1003.36
2022-08-16T01:23:26.842Z,1003.36
2022-08-16T01:24:52.049Z,1003.34
2022-08-16T01:25:34.001Z,1003.30
2022-08-16T01:26:34.641Z,1003.31
2022-08-16T01:27:26.676Z,1003.32
2022-08-16T01:28:30.819Z,1003.32
2022-08-16T01:29:35.680Z,1003.32
2022-08-16T01:30:26.715Z,1003.33
2022-08-16T01:31:31.019Z,1003.33
2022-08-16T01:32:33.887Z,1003.35
2022-08-16T01:33:33.494Z,1003.35
2022-08-16T01:34:26.540Z,1003.35
2022-08-16T01:35:26.333Z,1003.36
2022-08-16T01:36:26.670Z,1003.35
2022-08-16T01:37:26.248Z,1003.42
2022-08-16T01:38:28.300Z,1003.40
2022-08-16T01:40:26.120Z,1003.44
2022-08-16T01:41:26.079Z,1003.44
2022-08-16T01:42:26.038Z,1003.41
2022-08-16T01:43:25.996Z,1003.44
2022-08-16T01:44:25.951Z,1003.39
2022-08-16T01:45:40.459Z,1003.37
2022-08-16T01:46:29.762Z,1003.37
2022-08-16T01:47:25.836Z,1003.39
2022-08-16T01:48:25.780Z,1003.37
2022-08-16T01:49:25.740Z,1003.37
2022-08-16T01:50:42.685Z,1003.37
2022-08-16T01:51:25.655Z,1003.38
2022-08-16T01:52:29.327Z,1003.37
2022-08-16T01:53:25.578Z,1003.35
2022-08-16T01:54:31.193Z,1003.34
2022-08-16T01:55:25.483Z,1003.34
2022-08-16T01:56:25.561Z,1003.33
2022-08-16T01:57:25.400Z,1003.25
2022-08-16T01:58:25.357Z,1003.30
2022-08-16T01:59:25.313Z,1003.34
2022-08-16T02:00:29.450Z,1003.26
2022-08-16T02:01:26.120Z,1003.31
2022-08-16T02:02:26.737Z,1003.28
2022-08-16T02:03:26.692Z,1003.28
2022-08-16T02:04:40.113Z,1003.32
2022-08-16T02:05:25.061Z,1003.29
2022-08-16T02:06:33.808Z,1003.35
2022-08-16T02:07:25.494Z,1003.35
2022-08-16T02:08:32.815Z,1003.34
2022-08-16T02:09:24.890Z,1003.34
2022-08-16T02:10:24.850Z,1003.33
2022-08-16T02:11:24.802Z,1003.35
2022-08-16T02:12:50.398Z,1003.33
2022-08-16T02:13:27.700Z,1003.35
2022-08-16T02:14:26.606Z,1003.36
2022-08-16T02:15:25.201Z,1003.34
2022-08-16T02:17:52.682Z,1003.33
2022-08-16T02:18:51.315Z,1003.33
2022-08-16T02:19:59.286Z,1003.34
2022-08-16T02:20:51.229Z,1003.34
2022-08-16T02:22:08.904Z,1003.36
2022-08-16T02:22:51.379Z,1003.35
2022-08-16T02:23:51.102Z,1003.35
2022-08-16T02:24:51.057Z,1003.37
2022-08-16T02:25:54.080Z,1003.37
2022-08-16T02:26:50.969Z,1003.34
2022-08-16T02:27:51.601Z,1003.35
2022-08-16T02:28:50.885Z,1003.37
2022-08-16T02:29:50.845Z,1003.39
2022-08-16T02:30:51.756Z,1003.37
2022-08-16T02:32:03.574Z,1003.31
2022-08-16T02:33:02.794Z,1003.35
2022-08-16T02:33:50.874Z,1003.32
2022-08-16T02:34:50.628Z,1003.34
2022-08-16T02:35:55.491Z,1003.36
2022-08-16T02:36:50.838Z,1003.31
2022-08-16T02:37:52.743Z,1003.31
2022-08-16T02:38:50.458Z,1003.33
2022-08-16T02:39:54.178Z,1003.35
2022-08-16T02:40:50.373Z,1003.34
2022-08-16T02:53:23.563Z,1003.23
2022-08-16T02:54:20.068Z,1003.21
2022-08-16T02:55:40.683Z,1003.23
2022-08-16T02:56:19.952Z,1003.22
2022-08-16T02:57:19.903Z,1003.24
2022-08-16T02:58:19.861Z,1003.20
2022-08-16T02:59:19.821Z,1003.20
2022-08-16T03:00:33.754Z,1003.20
2022-08-16T03:01:24.410Z,1003.20
2022-08-16T03:02:19.720Z,1003.22
2022-08-16T03:03:19.650Z,1003.22
2022-08-16T03:04:29.073Z,1003.25
2022-08-16T03:05:19.567Z,1003.22
2022-08-16T03:06:41.623Z,1003.23
2022-08-16T03:07:27.487Z,1003.24
2022-08-16T03:08:51.048Z,1003.26
2022-08-16T03:09:19.433Z,1003.24
2022-08-16T03:10:19.352Z,1003.24
2022-08-16T03:11:21.791Z,1003.26
2022-08-16T03:12:19.289Z,1003.23
2022-08-16T03:13:19.234Z,1003.25
2022-08-16T03:14:21.162Z,1003.26
2022-08-16T03:15:19.145Z,1003.29
2022-08-16T03:16:38.543Z,1003.30
2022-08-16T03:17:19.070Z,1003.25
2022-08-16T03:18:34.469Z,1003.28
2022-08-16T03:19:18.975Z,1003.32
2022-08-16T03:20:18.932Z,1003.29
2022-08-16T03:21:19.103Z,1003.28
2022-08-16T03:22:29.096Z,1003.29
2022-08-16T03:23:18.831Z,1003.27
2022-08-16T03:24:29.037Z,1003.28
2022-08-16T03:25:18.731Z,1003.30
2022-08-16T03:26:18.683Z,1003.28
2022-08-16T03:27:18.647Z,1003.29
2022-08-16T03:28:18.601Z,1003.30
2022-08-16T03:29:18.559Z,1003.30
2022-08-16T03:30:18.534Z,1003.30
2022-08-16T03:31:18.497Z,1003.29
2022-08-16T03:32:18.434Z,1003.29
2022-08-16T03:33:18.400Z,1003.30
2022-08-16T03:34:18.351Z,1003.26
2022-08-16T03:35:18.329Z,1003.28
2022-08-16T03:36:29.759Z,1003.28
2022-08-16T03:37:18.225Z,1003.33
2022-08-16T03:38:33.052Z,1003.33
2022-08-16T03:39:20.260Z,1003.34
2022-08-16T03:40:32.798Z,1003.34
2022-08-16T03:41:25.347Z,1003.37
2022-08-16T03:42:20.190Z,1003.33
2022-08-16T03:43:20.161Z,1003.34
2022-08-16T03:44:44.758Z,1003.35
2022-08-16T03:45:17.898Z,1003.32
2022-08-16T03:46:47.399Z,1003.31
2022-08-16T03:47:19.080Z,1003.34
2022-08-16T03:48:18.418Z,1003.36
2022-08-16T03:49:17.742Z,1003.35
2022-08-16T03:50:25.982Z,1003.37
2022-08-16T03:51:17.656Z,1003.30
2022-08-16T03:52:17.611Z,1003.36
2022-08-16T03:53:17.555Z,1003.29
2022-08-16T03:54:17.534Z,1003.35
2022-08-16T03:55:17.471Z,1003.37
2022-08-16T03:56:19.998Z,1003.37
2022-08-16T03:57:17.381Z,1003.41
2022-08-16T03:58:17.345Z,1003.44
2022-08-16T03:59:17.325Z,1003.47
2022-08-16T04:00:35.250Z,1003.48
2022-08-16T04:01:17.266Z,1003.49
2022-08-16T04:02:22.231Z,1003.54
2022-08-16T04:03:18.664Z,1003.49
2022-08-16T04:04:25.099Z,1003.51
2022-08-16T04:05:17.055Z,1003.52
2022-08-16T04:06:17.025Z,1003.52
2022-08-16T04:07:16.988Z,1003.53
2022-08-16T04:08:22.764Z,1003.57
2022-08-16T04:09:16.876Z,1003.50
2022-08-16T04:10:37.265Z,1003.51
2022-08-16T04:12:52.789Z,1003.54
2022-08-16T04:13:20.238Z,1003.54
2022-08-16T04:14:32.587Z,1003.54
2022-08-16T04:15:20.666Z,1003.55
2022-08-16T04:16:26.222Z,1003.54
2022-08-16T04:17:17.143Z,1003.55
2022-08-16T04:18:16.931Z,1003.56
2022-08-16T04:19:16.478Z,1003.55
2022-08-16T04:20:31.299Z,1003.62
2022-08-16T04:21:29.566Z,1003.60
2022-08-16T04:22:17.205Z,1003.59
2022-08-16T04:23:16.674Z,1003.63
2022-08-16T04:24:16.260Z,1003.59
2022-08-16T04:25:16.204Z,1003.59
2022-08-16T04:26:16.692Z,1003.59
2022-08-16T04:27:16.117Z,1003.60
2022-08-16T04:28:28.996Z,1003.61
2022-08-16T04:29:23.229Z,1003.63
2022-08-16T04:30:31.702Z,1003.59
2022-08-16T04:31:15.948Z,1003.65
2022-08-16T04:32:16.113Z,1003.63
2022-08-16T04:33:15.862Z,1003.64
2022-08-16T04:34:18.645Z,1003.64
2022-08-16T04:36:54.229Z,1003.63
2022-08-16T04:37:54.264Z,1003.65
2022-08-16T04:38:54.142Z,1003.69
2022-08-16T04:39:55.615Z,1003.66
2022-08-16T04:40:54.351Z,1003.70
2022-08-16T04:41:57.054Z,1003.68
2022-08-16T04:42:54.728Z,1003.67
2022-08-16T04:43:53.934Z,1003.73
2022-08-16T04:44:55.762Z,1003.75
2022-08-16T04:46:00.482Z,1003.74
2022-08-16T04:47:02.559Z,1003.72
2022-08-16T04:47:56.194Z,1003.72
2022-08-16T04:48:53.716Z,1003.73
2022-08-16T04:49:53.673Z,1003.76
2022-08-16T04:50:53.634Z,1003.75
2022-08-16T04:51:55.494Z,1003.72
2022-08-16T04:52:53.551Z,1003.77
2022-08-16T04:53:53.506Z,1003.72
2022-08-16T04:54:53.463Z,1003.75
2022-08-16T04:55:53.726Z,1003.76
2022-08-16T04:57:53.963Z,1003.77
2022-08-16T04:58:53.296Z,1003.77
2022-08-16T05:00:53.212Z,1003.81
2022-08-16T05:01:58.815Z,1003.82
2022-08-16T05:02:54.925Z,1003.83
2022-08-16T05:03:59.928Z,1003.83
2022-08-16T05:04:53.045Z,1003.83
2022-08-16T05:05:59.499Z,1003.88
2022-08-16T05:06:52.995Z,1003.91
2022-08-16T05:07:57.827Z,1003.89
2022-08-16T05:08:52.875Z,1003.93
2022-08-16T05:09:52.827Z,1003.92
2022-08-16T05:10:52.795Z,1003.96
2022-08-16T05:11:52.745Z,1003.97
2022-08-16T05:12:52.709Z,1003.97
2022-08-16T05:13:52.662Z,1003.98
2022-08-16T05:15:01.697Z,1003.99
2022-08-16T05:16:52.532Z,1004.00
2022-08-16T05:17:58.556Z,1004.02
2022-08-16T05:18:52.458Z,1003.99
2022-08-16T05:19:57.578Z,1004.02
2022-08-16T05:21:01.231Z,1003.98
2022-08-16T05:21:52.362Z,1003.97
2022-08-16T05:22:53.058Z,1004.01
2022-08-16T05:23:55.733Z,1003.98
2022-08-16T05:24:54.923Z,1004.01
2022-08-16T05:25:52.156Z,1004.03
2022-08-16T05:26:52.139Z,1004.04
2022-08-16T05:27:52.075Z,1004.07
2022-08-16T05:28:55.804Z,1004.12
2022-08-16T05:29:57.822Z,1004.09
2022-08-16T05:31:53.384Z,1004.13
2022-08-16T05:33:53.276Z,1004.13
2022-08-16T05:34:51.782Z,1004.13
2022-08-16T05:35:55.229Z,1004.13
2022-08-16T05:36:51.698Z,1004.16
2022-08-16T05:37:51.663Z,1004.16
2022-08-16T05:38:51.617Z,1004.12
2022-08-16T05:39:51.604Z,1004.08
2022-08-16T05:46:28.752Z,1004.15
2022-08-16T05:47:10.548Z,1004.14
2022-08-16T05:48:10.518Z,1004.15
2022-08-16T05:49:10.462Z,1004.15
2022-08-16T05:50:10.422Z,1004.15
2022-08-16T05:51:10.389Z,1004.16
2022-08-16T05:52:11.402Z,1004.14
2022-08-16T05:53:10.295Z,1004.17
2022-08-16T05:54:11.355Z,1004.15
2022-08-16T05:55:10.211Z,1004.15
2022-08-16T06:02:37.986Z,1004.24
2022-08-16T06:03:37.920Z,1004.21
2022-08-16T06:06:06.339Z,1004.22
2022-08-16T06:07:06.330Z,1004.20
2022-08-16T06:08:06.233Z,1004.17
2022-08-16T06:09:06.208Z,1004.15
2022-08-16T06:10:06.200Z,1004.17
2022-08-16T06:11:11.092Z,1004.14
2022-08-16T06:12:06.070Z,1004.14
2022-08-16T06:13:06.074Z,1004.15
2022-08-16T06:14:06.001Z,1004.10
2022-08-16T06:15:54.355Z,1004.19
2022-08-16T06:16:54.351Z,1004.18
2022-08-16T06:17:54.643Z,1004.23
2022-08-16T06:18:54.398Z,1004.23
2022-08-16T06:19:54.178Z,1004.25
2022-08-16T06:20:55.624Z,1004.26
2022-08-16T06:21:55.127Z,1004.23
2022-08-16T06:26:36.956Z,1004.34
2022-08-16T06:27:25.584Z,1004.36
2022-08-16T06:28:34.858Z,1004.37
2022-08-16T06:29:25.537Z,1004.38
2022-08-16T06:35:40.451Z,1004.46
2022-08-16T06:36:32.305Z,1004.47
2022-08-16T06:37:37.332Z,1004.45
2022-08-16T06:38:33.260Z,1004.40
2022-08-16T06:39:30.784Z,1004.43
2022-08-16T06:40:33.543Z,1004.35
2022-08-16T06:41:39.710Z,1004.45
2022-08-16T06:42:39.455Z,1004.48
2022-08-16T06:43:30.581Z,1004.47
2022-08-16T06:44:30.535Z,1004.50
2022-08-16T06:45:30.495Z,1004.53
2022-08-16T06:46:31.858Z,1004.50
2022-08-16T06:47:53.195Z,1004.50
2022-08-16T06:48:32.186Z,1004.51
2022-08-16T06:49:30.326Z,1004.47
2022-08-16T06:50:30.282Z,1004.47
2022-08-16T06:51:45.091Z,1004.47
2022-08-16T06:52:57.278Z,1004.44
2022-08-16T06:53:30.165Z,1004.40
2022-08-16T06:54:30.111Z,1004.39
2022-08-16T06:55:34.429Z,1004.39
2022-08-16T06:56:30.028Z,1004.38
2022-08-16T06:57:29.986Z,1004.37
2022-08-16T06:58:31.923Z,1004.38
2022-08-16T06:59:29.900Z,1004.39
2022-08-16T07:00:29.857Z,1004.37
2022-08-16T07:01:43.189Z,1004.40
2022-08-16T07:02:33.385Z,1004.44
2022-08-16T07:03:32.531Z,1004.42
2022-08-16T07:04:32.570Z,1004.44
2022-08-16T07:05:41.736Z,1004.43
2022-08-16T07:06:29.604Z,1004.43
2022-08-16T07:07:33.830Z,1004.45
2022-08-16T07:08:29.524Z,1004.42
2022-08-16T07:09:29.857Z,1004.43
2022-08-16T07:10:29.466Z,1004.47
2022-08-16T07:11:47.496Z,1004.46
2022-08-16T07:12:36.688Z,1004.48
2022-08-16T07:13:58.567Z,1004.44
2022-08-16T07:14:29.484Z,1004.47
2022-08-16T07:15:29.244Z,1004.52
2022-08-16T07:16:29.182Z,1004.51
2022-08-16T07:17:29.140Z,1004.52
2022-08-16T07:18:29.114Z,1004.60
2022-08-16T07:19:33.620Z,1004.64
2022-08-16T07:20:35.754Z,1004.63
2022-08-16T07:21:45.677Z,1004.64
2022-08-16T07:22:38.576Z,1004.68
2022-08-16T07:23:36.943Z,1004.69
2022-08-16T07:24:30.332Z,1004.75
2022-08-16T07:25:28.806Z,1004.74
2022-08-16T07:26:28.759Z,1004.71
2022-08-16T07:27:28.721Z,1004.73
2022-08-16T07:28:28.684Z,1004.75
2022-08-16T07:29:31.298Z,1004.74
2022-08-16T07:30:45.313Z,1004.74
2022-08-16T07:31:37.885Z,1004.77
2022-08-16T07:32:29.711Z,1004.78
2022-08-16T07:33:52.682Z,1004.77
2022-08-16T07:34:35.669Z,1004.76
2022-08-16T07:35:28.386Z,1004.75
2022-08-16T07:36:29.052Z,1004.73
2022-08-16T07:37:28.298Z,1004.74
2022-08-16T07:38:33.916Z,1004.77
2022-08-16T07:39:33.413Z,1004.78
2022-08-16T07:40:57.962Z,1004.72
2022-08-16T07:41:28.130Z,1004.80
2022-08-16T07:42:35.174Z,1004.77
2022-08-16T07:43:29.052Z,1004.80
2022-08-16T07:44:28.000Z,1004.77
2022-08-16T07:45:27.961Z,1004.76
2022-08-16T07:46:37.919Z,1004.78
2022-08-16T07:47:31.590Z,1004.81
2022-08-16T07:48:27.833Z,1004.83
2022-08-16T07:49:32.505Z,1004.83
2022-08-16T07:50:56.789Z,1004.84
2022-08-16T07:51:27.715Z,1004.79
2022-08-16T07:52:29.575Z,1004.80
2022-08-16T07:53:29.069Z,1004.82
2022-08-16T07:54:37.973Z,1004.85
2022-08-16T07:55:27.542Z,1004.89
2022-08-16T07:56:33.805Z,1004.87
2022-08-16T07:57:27.461Z,1004.85
2022-08-16T07:58:34.790Z,1004.87
2022-08-16T07:59:45.679Z,1004.85
2022-08-16T08:00:27.334Z,1004.84
2022-08-16T08:01:28.199Z,1004.89
2022-08-16T08:02:28.058Z,1004.90
2022-08-16T08:03:36.028Z,1004.92
2022-08-16T08:04:27.164Z,1004.95
2022-08-16T08:05:36.874Z,1004.91
2022-08-16T08:06:27.084Z,1004.94
2022-08-16T08:07:28.131Z,1004.94
2022-08-16T08:08:51.590Z,1005.01
2022-08-16T08:09:26.958Z,1005.00
2022-08-16T08:10:29.548Z,1005.02
2022-08-16T08:11:28.097Z,1005.03
2022-08-16T08:12:31.915Z,1005.13
2022-08-16T08:13:41.761Z,1005.14
2022-08-16T08:14:29.290Z,1005.12
2022-08-16T08:15:26.712Z,1005.14
2022-08-16T08:16:30.287Z,1005.14
2022-08-16T08:17:43.136Z,1005.09
2022-08-16T08:18:30.504Z,1005.10
2022-08-16T08:19:26.603Z,1005.13
2022-08-16T08:20:28.319Z,1005.15
2022-08-16T08:21:48.707Z,1005.07
2022-08-16T08:22:26.415Z,1005.15
2022-08-16T08:23:26.379Z,1005.19
2022-08-16T08:24:31.576Z,1005.12
2022-08-16T08:25:26.293Z,1005.17
2022-08-16T08:26:26.259Z,1005.14
2022-08-16T08:27:26.214Z,1005.12
2022-08-16T08:28:26.523Z,1005.16
2022-08-16T08:29:37.139Z,1005.12
2022-08-16T08:30:49.721Z,1005.10
2022-08-16T08:31:26.047Z,1005.13
2022-08-16T08:32:57.604Z,1005.11
2022-08-16T08:33:25.963Z,1005.11
2022-08-16T08:34:25.925Z,1005.09
2022-08-16T08:35:27.088Z,1005.08
2022-08-16T08:36:33.089Z,1005.08
2022-08-16T08:37:25.798Z,1005.10
2022-08-16T08:38:43.916Z,1005.10
2022-08-16T08:39:25.752Z,1005.13
2022-08-16T08:40:26.670Z,1005.15
2022-08-16T08:41:28.385Z,1005.16
2022-08-16T08:42:27.924Z,1005.15
2022-08-16T08:43:25.552Z,1005.14
2022-08-16T08:44:28.563Z,1005.17
2022-08-16T08:45:48.151Z,1005.14
2022-08-16T08:46:25.427Z,1005.15
2022-08-16T08:47:25.387Z,1005.15
2022-08-16T08:48:33.441Z,1005.18
2022-08-16T08:49:47.007Z,1005.20
2022-08-16T08:50:31.984Z,1005.18
2022-08-16T08:51:25.223Z,1005.22
2022-08-16T08:52:47.815Z,1005.19
2022-08-16T08:53:30.411Z,1005.23
2022-08-16T08:54:25.099Z,1005.20
2022-08-16T08:55:25.060Z,1005.23
2022-08-16T08:56:25.683Z,1005.27
2022-08-16T08:57:24.979Z,1005.27
2022-08-16T08:58:24.938Z,1005.26
2022-08-16T08:59:24.896Z,1005.28
2022-08-16T09:00:26.927Z,1005.28
2022-08-16T09:01:31.649Z,1005.29
2022-08-16T09:02:24.796Z,1005.27
2022-08-16T09:03:24.733Z,1005.26
2022-08-16T09:04:24.753Z,1005.24
2022-08-16T09:05:24.653Z,1005.24
2022-08-16T09:06:24.607Z,1005.27
2022-08-16T09:07:24.570Z,1005.28
2022-08-16T09:08:26.393Z,1005.24
2022-08-16T09:09:24.501Z,1005.30
2022-08-16T09:10:24.446Z,1005.30
2022-08-16T09:11:40.649Z,1005.27
2022-08-16T09:12:36.280Z,1005.28
2022-08-16T09:13:24.327Z,1005.28
2022-08-16T09:14:24.961Z,1005.30
2022-08-16T09:15:24.250Z,1005.29
2022-08-16T09:17:03.447Z,1005.28
2022-08-16T09:17:45.517Z,1005.26
2022-08-16T09:18:26.415Z,1005.28
2022-08-16T09:19:33.053Z,1005.25
2022-08-16T09:20:24.041Z,1005.30
2022-08-16T09:21:31.444Z,1005.30
2022-08-16T09:22:23.961Z,1005.30
2022-08-16T09:23:23.920Z,1005.32
2022-08-16T09:24:46.883Z,1005.30
2022-08-16T09:25:33.557Z,1005.32
2022-08-16T09:26:44.637Z,1005.35
2022-08-16T09:27:25.145Z,1005.34
2022-08-16T09:29:13.576Z,1005.34
2022-08-16T09:29:44.527Z,1005.30
2022-08-16T09:30:34.362Z,1005.36
2022-08-16T09:31:23.651Z,1005.32
2022-08-16T09:32:28.996Z,1005.29
2022-08-16T09:33:23.519Z,1005.33
2022-08-16T09:34:23.479Z,1005.29
2022-08-16T09:35:23.440Z,1005.26
2022-08-16T09:36:32.156Z,1005.30
2022-08-16T09:37:29.558Z,1005.24
2022-08-16T09:38:32.049Z,1005.32
2022-08-16T09:39:23.349Z,1005.33
2022-08-16T09:40:32.675Z,1005.29
2022-08-16T09:41:23.231Z,1005.25
2022-08-16T09:42:23.158Z,1005.25
2022-08-16T09:43:58.301Z,1005.23
2022-08-16T09:45:11.228Z,1005.24
2022-08-16T09:45:23.039Z,1005.24
2022-08-16T09:46:44.397Z,1005.22
2022-08-16T09:47:23.344Z,1005.20
2022-08-16T09:48:44.002Z,1005.18
2022-08-16T09:49:22.880Z,1005.25
2022-08-16T09:50:23.265Z,1005.16
2022-08-16T09:51:23.463Z,1005.12
2022-08-16T09:52:22.763Z,1005.13
2022-08-16T09:53:22.728Z,1005.14
2022-08-16T09:54:22.690Z,1005.09
2022-08-16T09:55:22.664Z,1005.15
2022-08-16T09:56:22.610Z,1005.15
2022-08-16T09:57:22.756Z,1005.14
2022-08-16T09:58:40.429Z,1005.17
2022-08-16T09:59:22.632Z,1005.20
2022-08-16T10:00:44.506Z,1005.18
2022-08-16T10:01:22.414Z,1005.20
2022-08-16T10:02:26.117Z,1005.18
2022-08-16T10:04:13.016Z,1005.17
2022-08-16T10:05:05.736Z,1005.15
2022-08-16T10:06:05.651Z,1005.19
2022-08-16T10:07:15.493Z,1005.19
2022-08-16T10:08:26.088Z,1005.20
2022-08-16T10:09:08.399Z,1005.17
2022-08-16T10:10:08.533Z,1005.23
2022-08-16T10:11:05.455Z,1005.22
2022-08-16T10:12:11.537Z,1005.18
2022-08-16T10:13:05.402Z,1005.21
2022-08-16T10:14:05.358Z,1005.24
2022-08-16T10:15:05.650Z,1005.24
2022-08-16T10:16:05.892Z,1005.27
2022-08-16T10:17:05.248Z,1005.25
2022-08-16T10:19:00.104Z,1005.26
2022-08-16T10:19:06.424Z,1005.22
2022-08-16T10:20:05.198Z,1005.23
2022-08-16T10:21:07.928Z,1005.17
2022-08-16T10:22:05.594Z,1005.25
2022-08-16T10:23:07.206Z,1005.24
2022-08-16T10:24:55.793Z,1005.27
2022-08-16T10:27:16.548Z,1005.26
2022-08-16T10:27:56.916Z,1005.29
2022-08-16T10:28:39.421Z,1005.24
2022-08-16T10:30:00.435Z,1005.23
2022-08-16T10:30:36.949Z,1005.24
2022-08-16T10:31:44.412Z,1005.23
2022-08-16T10:32:36.483Z,1005.21
2022-08-16T10:35:36.404Z,1005.26
2022-08-16T10:39:10.217Z,1005.29
2022-08-16T10:41:10.253Z,1005.25
2022-08-16T10:42:09.968Z,1005.25
2022-08-16T10:43:09.923Z,1005.27
2022-08-16T10:45:09.859Z,1005.27
2022-08-16T10:46:39.617Z,1005.32
2022-08-16T10:47:09.993Z,1005.28
2022-08-16T10:48:27.058Z,1005.28
2022-08-16T10:49:09.967Z,1005.28
2022-08-16T10:50:18.876Z,1005.30
2022-08-16T10:51:09.759Z,1005.33
2022-08-16T10:52:18.665Z,1005.32
2022-08-16T10:53:09.744Z,1005.36
2022-08-16T10:54:28.682Z,1005.30
2022-08-16T10:56:52.806Z,1005.31
2022-08-16T10:57:11.978Z,1005.30
2022-08-16T10:58:11.635Z,1005.28
2022-08-16T11:00:21.449Z,1005.26
2022-08-16T11:01:40.054Z,1005.25
2022-08-16T11:02:58.678Z,1005.27
2022-08-16T11:03:42.595Z,1005.31
2022-08-16T11:05:10.685Z,1005.26
2022-08-16T11:06:09.597Z,1005.27
2022-08-16T11:07:43.460Z,1005.26
2022-08-16T11:08:09.199Z,1005.29
2022-08-16T11:09:25.769Z,1005.26
2022-08-16T11:11:12.807Z,1005.32
2022-08-16T11:12:13.729Z,1005.28
2022-08-16T11:14:11.602Z,1005.30
2022-08-16T11:15:12.282Z,1005.32
2022-08-16T11:17:10.847Z,1005.26
2022-08-16T11:18:48.503Z,1005.24
2022-08-16T11:19:12.469Z,1005.17
2022-08-16T11:21:08.516Z,1005.20
2022-08-16T11:22:22.855Z,1005.24
2022-08-16T11:23:08.441Z,1005.23
2022-08-16T11:24:39.159Z,1005.23
2022-08-16T11:25:12.288Z,1005.28
2022-08-16T11:26:23.330Z,1005.29
2022-08-16T11:27:32.523Z,1005.24
2022-08-16T11:28:08.253Z,1005.19
2022-08-16T11:29:15.507Z,1005.03
2022-08-16T11:30:09.101Z,1005.28
2022-08-16T11:31:08.140Z,1005.27
2022-08-16T11:32:08.105Z,1005.27
2022-08-16T11:33:08.065Z,1005.30
2022-08-16T11:34:08.131Z,1005.28
2022-08-16T11:35:10.952Z,1005.29
2022-08-16T11:36:24.965Z,1005.29
2022-08-16T11:37:11.620Z,1005.28
2022-08-16T11:38:46.701Z,1005.21
2022-08-16T11:39:07.840Z,1005.20
2022-08-16T11:40:07.880Z,1005.23
2022-08-16T11:41:07.762Z,1005.18
2022-08-16T11:42:23.089Z,1005.25
2022-08-16T11:43:10.226Z,1005.25
2022-08-16T11:44:07.653Z,1005.22
2022-08-16T11:45:07.617Z,1005.23
2022-08-16T11:46:43.784Z,1005.27
2022-08-16T11:47:07.627Z,1005.25
2022-08-16T11:48:07.548Z,1005.27
2022-08-16T11:49:12.744Z,1005.31
2022-08-16T11:50:07.427Z,1005.23
2022-08-16T11:51:07.389Z,1005.32
2022-08-16T11:52:07.353Z,1005.33
2022-08-16T11:53:08.260Z,1005.28
2022-08-16T11:54:09.059Z,1005.29
2022-08-16T11:55:07.239Z,1005.24
2022-08-16T11:56:07.203Z,1005.28
2022-08-16T11:57:09.369Z,1005.27
2022-08-16T11:58:07.126Z,1005.26
2022-08-16T11:59:07.111Z,1005.28
2022-08-16T12:00:07.241Z,1005.29
2022-08-16T12:01:07.013Z,1005.29
2022-08-16T12:02:31.106Z,1005.33
2022-08-16T12:03:06.940Z,1005.33
2022-08-16T12:04:06.980Z,1005.37
2022-08-16T12:05:06.865Z,1005.33
2022-08-16T12:06:06.832Z,1005.35
2022-08-16T12:07:06.789Z,1005.31
2022-08-16T12:08:06.754Z,1005.32
2022-08-16T12:09:06.715Z,1005.29
2022-08-16T12:10:06.678Z,1005.33
2022-08-16T12:11:06.639Z,1005.29
2022-08-16T12:12:06.629Z,1005.32
2022-08-16T12:13:06.565Z,1005.30
2022-08-16T12:14:06.532Z,1005.33
2022-08-16T12:15:06.491Z,1005.37
2022-08-16T12:16:06.456Z,1005.38
2022-08-16T12:17:06.419Z,1005.43
2022-08-16T12:18:06.950Z,1005.38
2022-08-16T12:19:06.343Z,1005.34
2022-08-16T12:20:06.789Z,1005.32
2022-08-16T12:21:06.268Z,1005.34
2022-08-16T12:22:18.632Z,1005.31
2022-08-16T12:23:06.196Z,1005.33
2022-08-16T12:24:06.161Z,1005.31
2022-08-16T12:25:06.122Z,1005.34
2022-08-16T12:26:10.244Z,1005.37
2022-08-16T12:27:06.047Z,1005.33
2022-08-16T12:28:06.018Z,1005.30
2022-08-16T12:29:05.977Z,1005.34
2022-08-16T12:30:05.946Z,1005.33
2022-08-16T12:31:05.899Z,1005.34
2022-08-16T12:32:36.143Z,1005.32
2022-08-16T12:33:06.636Z,1005.29
2022-08-16T12:34:05.789Z,1005.29
2022-08-16T12:35:05.751Z,1005.30
2022-08-16T12:36:05.714Z,1005.30
2022-08-16T12:37:11.819Z,1005.32
2022-08-16T12:38:38.039Z,1005.31
2022-08-16T12:39:05.600Z,1005.32
2022-08-16T12:40:05.604Z,1005.30
2022-08-16T12:41:05.525Z,1005.28
2022-08-16T12:42:05.496Z,1005.27
2022-08-16T12:43:05.451Z,1005.33
2022-08-16T12:44:50.265Z,1005.32
2022-08-16T12:45:49.834Z,1005.34
2022-08-16T12:46:49.800Z,1005.27
2022-08-16T12:47:49.767Z,1005.29
2022-08-16T12:48:49.724Z,1005.30
2022-08-16T12:49:49.685Z,1005.34
2022-08-16T12:50:50.314Z,1005.34
2022-08-16T12:51:59.421Z,1005.32
2022-08-16T12:52:53.327Z,1005.30
2022-08-16T12:53:49.720Z,1005.31
2022-08-16T12:54:55.016Z,1005.29
2022-08-16T12:55:49.463Z,1005.34
2022-08-16T12:56:50.438Z,1005.33
2022-08-16T12:57:57.996Z,1005.35
2022-08-16T12:58:51.432Z,1005.35
2022-08-16T12:59:49.309Z,1005.36
2022-08-16T13:00:49.308Z,1005.32
2022-08-16T13:01:50.497Z,1005.38
2022-08-16T13:02:49.314Z,1005.37
2022-08-16T13:03:49.161Z,1005.34
2022-08-16T13:04:49.124Z,1005.40
2022-08-16T13:05:53.604Z,1005.39